Time;durP1;ratioP1;P1;durP2;ratioP2;P2;SDS_P1;SDS_P2;PMS_P1;PMS_P2;Temp;Humidity;BMP_temperature;BMP_pressure;BME280_temperature;BME280_humidity;BME280_pressure;Samples;Min_cycle;Max_cycle;Signal;HPM_P1;HPM_P2
2022/02/13 00:00:44;;;;;;;12.13;4.75;;;;;;;1.07;76.59;101927.03;5055640;28;20071;-35
2022/02/13 00:03:10;;;;;;;11.50;4.78;;;;;;;1.06;76.96;101920.88;5055051;28;20032;-35
2022/02/13 00:05:35;;;;;;;9.80;4.77;;;;;;;1.03;77.23;101918.50;5055332;28;20025;-35
2022/02/13 00:08:00;;;;;;;10.93;5.63;;;;;;;0.98;77.12;101916.28;5055426;28;20029;-35
2022/02/13 00:10:26;;;;;;;8.80;4.53;;;;;;;0.97;77.43;101927.03;5055254;28;20068;-35
2022/02/13 00:12:52;;;;;;;9.13;5.20;;;;;;;0.96;77.96;101926.22;5055468;28;20032;-35
2022/02/13 00:15:17;;;;;;;9.10;4.43;;;;;;;0.96;78.35;101925.38;5054609;28;20033;-35
2022/02/13 00:17:42;;;;;;;9.07;4.40;;;;;;;0.95;78.49;101916.53;5054870;28;20022;-35
2022/02/13 00:20:08;;;;;;;9.20;4.90;;;;;;;0.93;78.13;101925.66;5055574;28;20033;-35
2022/02/13 00:22:34;;;;;;;9.55;5.18;;;;;;;0.81;78.45;101902.81;5054702;28;20099;-35
2022/02/13 00:25:00;;;;;;;11.07;5.07;;;;;;;0.82;78.60;101915.97;5054898;28;20043;-35
2022/02/13 00:27:25;;;;;;;9.07;4.80;;;;;;;0.82;78.69;101910.66;5054644;28;20413;-35
2022/02/13 00:29:51;;;;;;;12.55;5.88;;;;;;;0.81;78.41;101916.13;5054694;28;20065;-35
2022/02/13 00:32:16;;;;;;;9.82;4.57;;;;;;;0.75;78.62;101907.72;5054642;28;20393;-34
2022/02/13 00:34:44;;;;;;;7.77;5.07;;;;;;;0.71;78.73;101897.50;5054848;28;20369;-35
2022/02/13 00:37:09;;;;;;;10.52;4.97;;;;;;;0.73;79.32;101907.03;5055167;28;20029;-34
2022/02/13 00:39:35;;;;;;;11.67;5.37;;;;;;;0.74;78.61;101921.19;5055006;28;20507;-35
2022/02/13 00:42:00;;;;;;;10.13;5.13;;;;;;;0.70;79.01;101906.47;5055131;28;20036;-35
2022/02/13 00:44:26;;;;;;;8.33;4.60;;;;;;;0.70;79.01;101904.66;5054017;28;20033;-34
2022/02/13 00:46:52;;;;;;;7.65;4.90;;;;;;;0.47;79.18;101871.31;5054204;28;20063;-34
2022/02/13 00:49:17;;;;;;;12.77;5.40;;;;;;;0.49;80.06;101864.03;5054013;28;20059;-34
2022/02/13 00:51:42;;;;;;;10.17;6.03;;;;;;;0.61;79.06;101881.53;5054129;28;20029;-35
2022/02/13 00:54:08;;;;;;;9.10;5.27;;;;;;;0.65;79.55;101885.59;5054797;28;20103;-34
2022/02/13 00:56:33;;;;;;;9.70;5.67;;;;;;;0.62;79.49;101879.72;5054701;28;20032;-34
2022/02/13 00:58:58;;;;;;;10.73;4.77;;;;;;;0.62;79.99;101877.03;5053979;28;20397;-34
2022/02/13 01:01:24;;;;;;;10.60;5.60;;;;;;;0.60;79.75;101877.19;5054140;28;20028;-34
2022/02/13 01:03:49;;;;;;;10.20;5.60;;;;;;;0.54;80.59;101880.44;5053902;28;20029;-34
2022/02/13 01:06:14;;;;;;;9.57;5.13;;;;;;;0.53;80.70;101876.06;5054372;28;20077;-34
2022/02/13 01:08:40;;;;;;;9.13;5.30;;;;;;;0.52;80.48;101866.41;5054140;28;20122;-34
2022/02/13 01:11:06;;;;;;;11.80;5.43;;;;;;;0.58;80.39;101872.97;5054016;28;20033;-34
2022/02/13 01:13:32;;;;;;;12.57;4.82;;;;;;;0.49;80.56;101858.72;5053731;28;20163;-34
2022/02/13 01:15:58;;;;;;;8.00;4.73;;;;;;;0.54;80.46;101871.56;5046389;28;20029;-35
2022/02/13 01:18:24;;;;;;;10.77;5.40;;;;;;;0.52;80.71;101861.06;5053048;28;20048;-35
2022/02/13 01:20:49;;;;;;;8.93;4.75;;;;;;;0.52;80.83;101859.25;5053752;28;20416;-35
2022/02/13 01:23:15;;;;;;;8.37;4.97;;;;;;;0.55;80.45;101854.66;5053829;28;20476;-34
2022/02/13 01:25:40;;;;;;;7.87;4.53;;;;;;;0.55;80.38;101852.81;5054108;28;20032;-34
2022/02/13 01:28:06;;;;;;;9.63;5.07;;;;;;;0.52;80.79;101850.44;5053481;28;20417;-34
2022/02/13 01:30:32;;;;;;;10.63;4.90;;;;;;;0.51;80.55;101843.44;5053496;28;20025;-35
2022/02/13 01:32:58;;;;;;;;;;;;;;;0.56;80.62;101835.03;5054394;28;20044;-35
2022/02/13 01:35:24;;;;;;;8.80;4.70;;;;;;;0.49;80.81;101837.41;5053473;28;20246;-35
2022/02/13 01:37:49;;;;;;;10.65;4.85;;;;;;;0.47;80.47;101829.56;5054126;28;20025;-35
2022/02/13 01:40:15;;;;;;;9.83;4.53;;;;;;;0.48;81.17;101825.06;5053908;28;20094;-35
2022/02/13 01:42:40;;;;;;;8.70;4.78;;;;;;;0.51;81.44;101819.47;5053318;28;20029;-35
2022/02/13 01:45:06;;;;;;;7.73;4.63;;;;;;;0.43;81.29;101801.53;5053226;28;20466;-34
2022/02/13 01:47:34;;;;;;;8.18;5.63;;;;;;;0.49;80.95;101802.81;5053212;28;20556;-35
2022/02/13 01:50:00;;;;;;;9.25;5.25;;;;;;;0.49;81.01;101808.97;5053502;28;20029;-34
2022/02/13 01:52:25;;;;;;;;;;;;;;;0.53;80.55;101801.53;5052117;28;20025;-35
2022/02/13 01:54:51;;;;;;;8.60;4.68;;;;;;;0.44;81.56;101789.06;5054214;28;19928;-35
2022/02/13 01:57:16;;;;;;;8.87;5.23;;;;;;;0.46;80.67;101801.28;5051977;28;20155;-35
2022/02/13 01:59:41;;;;;;;8.40;5.50;;;;;;;0.44;81.34;101797.94;5053203;28;20040;-35
2022/02/13 02:02:07;;;;;;;9.87;4.93;;;;;;;0.47;81.25;101796.78;5052820;28;20021;-35
2022/02/13 02:04:32;;;;;;;11.03;4.63;;;;;;;0.45;81.35;101796.09;5053627;28;20094;-34
2022/02/13 02:07:00;;;;;;;8.73;4.95;;;;;;;0.43;80.87;101790.91;5053684;28;20547;-35
2022/02/13 02:09:26;;;;;;;8.70;4.72;;;;;;;0.45;81.22;101788.13;5053341;28;20080;-34
2022/02/13 02:11:52;;;;;;;10.50;4.95;;;;;;;0.33;81.17;101773.28;5053322;28;20425;-35
2022/02/13 02:14:17;;;;;;;8.55;5.30;;;;;;;0.35;81.44;101771.31;5053034;28;20052;-35
2022/02/13 02:16:43;;;;;;;9.50;4.60;;;;;;;0.37;81.71;101774.66;5052986;28;20033;-35
2022/02/13 02:19:10;;;;;;;8.60;5.18;;;;;;;0.37;81.27;101777.34;5051408;28;20029;-35
2022/02/13 02:21:42;;;;;;;11.20;5.40;;;;;;;0.37;81.61;101774.66;5052544;28;20436;-34
2022/02/13 02:24:16;;;;;;;9.15;4.93;;;;;;;0.38;81.14;101771.03;5053130;28;20037;-35
2022/02/13 02:26:43;;;;;;;10.18;4.90;;;;;;;0.32;81.39;101767.09;5052642;28;20052;-35
2022/02/13 02:29:08;;;;;;;7.07;4.32;;;;;;;0.35;80.92;101771.31;5052532;28;20485;-35
2022/02/13 02:31:34;;;;;;;9.48;4.82;;;;;;;0.28;81.16;101751.56;5051578;28;20076;-35
2022/02/13 02:33:59;;;;;;;8.43;5.07;;;;;;;0.35;80.87;101758.84;5053034;28;20064;-35
2022/02/13 02:36:26;;;;;;;9.75;5.25;;;;;;;0.40;81.01;101758.44;5053076;28;20025;-35
2022/02/13 02:38:51;;;;;;;;;;;;;;;0.41;81.06;101744.13;5053225;28;20051;-35
2022/02/13 02:41:17;;;;;;;9.27;5.20;;;;;;;0.35;80.76;101739.41;5052695;28;20356;-35
2022/02/13 02:43:43;;;;;;;11.82;5.13;;;;;;;0.32;81.78;101729.03;5051282;28;20041;-34
2022/02/13 02:46:10;;;;;;;10.18;4.70;;;;;;;0.30;81.50;101717.69;5052721;28;20102;-35
2022/02/13 02:48:36;;;;;;;9.85;5.30;;;;;;;0.27;81.38;101718.81;5052689;28;20036;-35
2022/02/13 02:51:02;;;;;;;9.80;4.63;;;;;;;0.24;81.21;101713.75;5052511;28;20033;-34
2022/02/13 02:53:28;;;;;;;7.88;4.05;;;;;;;0.28;81.41;101717.81;5052454;28;20214;-34
2022/02/13 02:55:54;;;;;;;6.15;4.20;;;;;;;0.27;81.80;101704.66;5052813;28;20025;-34
2022/02/13 02:58:20;;;;;;;8.00;4.28;;;;;;;0.25;81.96;101704.81;5052264;28;20512;-35
2022/02/13 03:00:45;;;;;;;6.63;4.32;;;;;;;0.24;81.44;101700.47;5052746;28;20473;-34
2022/02/13 03:03:10;;;;;;;6.53;4.00;;;;;;;0.23;81.50;101699.63;5052668;28;20079;-35
2022/02/13 03:05:36;;;;;;;8.27;3.90;;;;;;;0.11;81.31;101682.16;5052610;28;20062;-34
2022/02/13 03:08:01;;;;;;;5.90;4.13;;;;;;;0.20;81.60;101691.13;5053921;28;20461;-35
2022/02/13 03:10:27;;;;;;;6.90;4.22;;;;;;;0.20;81.64;101686.63;5055914;28;20381;-34
2022/02/13 03:12:52;;;;;;;10.00;5.70;;;;;;;0.20;81.83;101685.78;5055772;28;20082;-35
2022/02/13 03:15:17;;;;;;;6.40;4.40;;;;;;;0.22;81.61;101684.66;5056133;28;20033;-34
2022/02/13 03:17:43;;;;;;;5.70;4.30;;;;;;;0.17;81.73;101668.28;5055661;28;20029;-34
2022/02/13 03:20:09;;;;;;;7.97;4.50;;;;;;;0.19;81.46;101666.31;5056447;28;20100;-35
2022/02/13 03:22:35;;;;;;;8.75;4.70;;;;;;;0.19;82.28;101662.81;5055808;28;20054;-34
2022/02/13 03:25:01;;;;;;;8.82;4.32;;;;;;;0.15;81.36;101662.28;5056061;28;20032;-34
2022/02/13 03:27:26;;;;;;;6.97;4.03;;;;;;;0.20;81.71;101664.50;5056026;28;20044;-34
2022/02/13 03:29:52;;;;;;;6.83;4.57;;;;;;;0.07;81.32;101648.00;5056082;28;20259;-35
2022/02/13 03:32:17;;;;;;;9.93;4.50;;;;;;;0.23;81.17;101659.72;5055723;28;20028;-35
2022/02/13 03:34:42;;;;;;;7.53;4.07;;;;;;;0.24;81.90;101658.75;5056281;28;20041;-35
2022/02/13 03:37:08;;;;;;;7.73;3.70;;;;;;;0.23;81.65;101657.06;5055978;28;20037;-34
2022/02/13 03:39:33;;;;;;;10.03;4.40;;;;;;;0.19;81.62;101660.16;5055913;28;20488;-34
2022/02/13 03:41:59;;;;;;;6.22;4.28;;;;;;;0.15;81.45;101656.97;5055523;28;20025;-34
2022/02/13 03:44:24;;;;;;;6.10;3.87;;;;;;;0.13;81.88;101644.78;5056235;28;20025;-35
2022/02/13 03:46:50;;;;;;;8.73;4.53;;;;;;;0.13;81.84;101650.94;5055422;28;20068;-35
2022/02/13 03:49:16;;;;;;;9.00;4.35;;;;;;;0.13;81.76;101645.59;5054782;28;20025;-35
2022/02/13 03:51:41;;;;;;;7.32;3.85;;;;;;;0.14;81.36;101641.97;5054257;28;20382;-35
2022/02/13 03:54:07;;;;;;;7.47;4.20;;;;;;;0.17;82.11;101640.84;5055649;28;20045;-35
2022/02/13 03:56:32;;;;;;;5.23;3.87;;;;;;;0.16;81.80;101634.69;5055570;28;20116;-35
2022/02/13 03:58:58;;;;;;;7.73;4.20;;;;;;;0.15;81.47;101622.38;5055623;28;20036;-35
2022/02/13 04:01:24;;;;;;;7.90;4.68;;;;;;;0.17;81.76;101632.88;5055387;28;20039;-35
2022/02/13 04:03:49;;;;;;;7.57;4.03;;;;;;;0.17;81.80;101633.69;5055353;28;20024;-35
2022/02/13 04:06:15;;;;;;;7.43;3.90;;;;;;;0.10;81.21;101611.34;5055808;28;20370;-35
2022/02/13 04:08:40;;;;;;;6.77;4.00;;;;;;;0.15;81.83;101627.69;5054745;28;20029;-34
2022/02/13 04:11:06;;;;;;;7.63;4.00;;;;;;;0.15;81.38;101621.53;5055432;28;20021;-41
2022/02/13 04:13:31;;;;;;;11.32;4.28;;;;;;;0.16;81.82;101624.06;5054788;28;20036;-34
2022/02/13 04:15:57;;;;;;;6.97;4.07;;;;;;;0.14;81.65;101604.72;5054638;28;20051;-34
2022/02/13 04:18:23;;;;;;;8.03;4.27;;;;;;;0.15;81.55;101611.75;5055072;28;20025;-34
2022/02/13 04:20:48;;;;;;;8.95;4.07;;;;;;;0.09;81.98;101591.03;5054303;28;20029;-34
2022/02/13 04:23:14;;;;;;;9.43;4.22;;;;;;;0.11;81.38;101583.75;5054504;28;20036;-34
2022/02/13 04:25:40;;;;;;;8.68;4.18;;;;;;;0.17;81.64;101593.81;5054471;28;20033;-35
2022/02/13 04:28:05;;;;;;;6.45;3.85;;;;;;;-0.05;81.77;101557.78;5054591;28;20060;-35
2022/02/13 04:30:31;;;;;;;6.35;3.92;;;;;;;0.07;81.37;101565.56;5054852;28;20041;-35
2022/02/13 04:32:56;;;;;;;7.17;4.33;;;;;;;0.04;82.17;101565.84;5055037;28;20021;-34
2022/02/13 04:35:26;;;;;;;7.73;4.53;;;;;;;0.13;82.12;101586.25;5054247;28;20286;-34
2022/02/13 04:37:52;;;;;;;6.18;3.53;;;;;;;0.13;82.11;101573.78;5054443;28;20059;-34
2022/02/13 04:40:19;;;;;;;6.25;3.58;;;;;;;0.06;81.83;101561.25;5054706;28;20109;-35
2022/02/13 04:42:45;;;;;;;8.63;3.88;;;;;;;0.09;81.58;101558.28;5054366;28;20025;-35
2022/02/13 04:45:10;;;;;;;5.93;4.25;;;;;;;0.17;82.31;101564.53;5053962;28;20041;-35
2022/02/13 04:47:35;;;;;;;6.90;4.00;;;;;;;0.15;82.03;101563.88;5054265;28;20086;-35
2022/02/13 04:50:01;;;;;;;6.17;4.13;;;;;;;0.15;82.04;101568.34;5053976;28;20116;-35
2022/02/13 04:52:26;;;;;;;6.40;3.90;;;;;;;0.16;81.77;101554.91;5054688;28;20109;-35
2022/02/13 04:54:51;;;;;;;5.53;4.00;;;;;;;0.19;82.07;101561.72;5054991;28;20089;-35
2022/02/13 04:57:17;;;;;;;5.67;3.80;;;;;;;0.17;82.04;101572.53;5054198;28;20108;-35
2022/02/13 04:59:42;;;;;;;6.47;3.97;;;;;;;0.18;81.64;101560.06;5054124;28;20025;-35
2022/02/13 05:02:08;;;;;;;6.33;4.13;;;;;;;0.18;82.30;101566.22;5054545;28;20021;-35
2022/02/13 05:04:33;;;;;;;6.70;3.65;;;;;;;0.02;81.71;101531.44;5054426;28;20024;-35
2022/02/13 05:06:59;;;;;;;5.57;3.70;;;;;;;0.16;83.15;101551.41;5053938;28;20447;-33
2022/02/13 05:09:24;;;;;;;4.83;3.93;;;;;;;0.16;82.13;101560.22;5054164;28;20039;-35
2022/02/13 05:11:49;;;;;;;5.60;3.90;;;;;;;0.10;81.91;101543.97;5054156;28;20035;-35
2022/02/13 05:14:15;;;;;;;7.70;4.20;;;;;;;0.13;82.03;101555.19;5053597;28;20082;-34
2022/02/13 05:16:40;;;;;;;9.63;4.55;;;;;;;0.11;82.07;101554.50;5053692;28;20037;-34
2022/02/13 05:19:06;;;;;;;8.70;4.60;;;;;;;0.11;82.64;101557.16;5054510;28;20071;-35
2022/02/13 05:21:31;;;;;;;5.87;3.93;;;;;;;0.09;82.37;101553.78;5053443;28;20025;-35
2022/02/13 05:23:56;;;;;;;6.50;4.30;;;;;;;0.11;82.77;101557.16;5053619;28;20456;-35
2022/02/13 05:26:22;;;;;;;7.67;3.70;;;;;;;0.11;82.54;101557.16;5053626;28;20075;-35
2022/02/13 05:28:47;;;;;;;5.30;3.93;;;;;;;0.12;82.49;101545.53;5054297;28;20036;-35
2022/02/13 05:31:13;;;;;;;7.70;3.87;;;;;;;0.13;82.69;101555.19;5053101;28;20043;-34
2022/02/13 05:33:38;;;;;;;8.63;4.17;;;;;;;0.15;82.29;101541.75;5053402;28;20072;-34
2022/02/13 05:36:03;;;;;;;8.50;4.43;;;;;;;0.15;82.69;101544.41;5053659;28;20112;-34
2022/02/13 05:38:29;;;;;;;6.10;3.65;;;;;;;0.14;82.42;101532.91;5053311;28;20029;-34
2022/02/13 05:40:54;;;;;;;6.40;3.80;;;;;;;0.11;82.86;101533.22;5053610;28;20025;-35
2022/02/13 05:43:19;;;;;;;5.60;4.00;;;;;;;0.07;82.12;101523.84;5051734;28;20500;-34
2022/02/13 05:45:45;;;;;;;6.40;3.93;;;;;;;0.10;82.68;101523.56;5053796;28;20519;-34
2022/02/13 05:48:14;;;;;;;7.68;3.67;;;;;;;0.11;82.42;101527.06;5053185;28;20037;-34
2022/02/13 05:50:41;;;;;;;7.28;4.35;;;;;;;0.08;82.95;101530.00;5053481;28;20036;-34
2022/02/13 05:53:07;;;;;;;7.03;3.85;;;;;;;-0.03;82.97;101507.94;5053249;28;20329;-34
2022/02/13 05:55:32;;;;;;;7.22;3.90;;;;;;;0.14;83.09;101524.09;5053658;28;20120;-34
2022/02/13 05:57:59;;;;;;;5.80;4.07;;;;;;;0.13;82.51;101522.44;5053504;28;20064;-34
2022/02/13 06:00:24;;;;;;;10.57;4.57;;;;;;;0.06;82.57;101500.06;5053015;28;20503;-34
2022/02/13 06:02:49;;;;;;;7.47;4.10;;;;;;;0.07;82.95;101504.41;5052993;28;20051;-35
2022/02/13 06:05:15;;;;;;;6.43;4.07;;;;;;;0.07;82.41;101493.75;5053195;28;20100;-34
2022/02/13 06:07:42;;;;;;;5.77;4.00;;;;;;;0.08;82.45;101488.28;5052683;28;20473;-34
2022/02/13 06:10:09;;;;;;;5.65;3.83;;;;;;;0.07;82.74;101491.09;5053045;28;20025;-34
2022/02/13 06:12:34;;;;;;;7.30;3.90;;;;;;;0.14;82.76;101498.34;5052954;28;20033;-34
2022/02/13 06:15:00;;;;;;;10.25;4.75;;;;;;;0.12;82.55;101487.00;5053077;28;20547;-34
2022/02/13 06:17:25;;;;;;;9.40;4.90;;;;;;;0.13;82.82;101482.53;5052634;28;20029;-34
2022/02/13 06:19:50;;;;;;;5.23;3.83;;;;;;;0.12;82.38;101484.34;5053256;28;20021;-34
2022/02/13 06:22:16;;;;;;;6.47;3.67;;;;;;;0.04;82.88;101470.94;5053197;28;20033;-34
2022/02/13 06:24:41;;;;;;;6.73;4.30;;;;;;;0.13;82.58;101472.72;5051900;28;20033;-34
2022/02/13 06:27:06;;;;;;;5.53;3.97;;;;;;;0.13;82.99;101467.41;5052865;28;20511;-35
2022/02/13 06:29:32;;;;;;;9.57;4.47;;;;;;;0.14;82.61;101471.75;5052548;28;20384;-35
2022/02/13 06:31:57;;;;;;;8.00;4.37;;;;;;;0.18;82.95;101469.63;5053111;28;20028;-35
2022/02/13 06:34:23;;;;;;;7.40;4.70;;;;;;;0.18;82.96;101461.66;5053484;28;20025;-35
2022/02/13 06:36:48;;;;;;;6.78;4.53;;;;;;;0.11;82.59;101453.44;5052878;28;20029;-34
2022/02/13 06:39:14;;;;;;;6.90;4.53;;;;;;;0.19;82.67;101458.00;5052824;28;20385;-34
2022/02/13 06:41:39;;;;;;;6.83;4.40;;;;;;;0.20;82.53;101460.53;5052908;28;20032;-34
2022/02/13 06:44:04;;;;;;;7.03;4.50;;;;;;;0.23;82.39;101460.22;5056091;28;20032;-34
2022/02/13 06:46:30;;;;;;;6.13;4.27;;;;;;;0.23;82.54;101462.88;5057106;28;20075;-34
2022/02/13 06:48:55;;;;;;;7.40;3.80;;;;;;;0.22;82.17;101457.72;5056420;28;20028;-34
2022/02/13 06:51:20;;;;;;;6.03;4.13;;;;;;;0.28;82.98;101458.94;5057004;28;20142;-34
2022/02/13 06:53:46;;;;;;;5.47;3.80;;;;;;;0.28;82.56;101456.28;5056415;28;20362;-34
2022/02/13 06:56:13;;;;;;;8.37;5.03;;;;;;;0.12;82.67;101433.00;5056723;28;20048;-34
2022/02/13 06:58:38;;;;;;;7.40;4.28;;;;;;;0.32;82.02;101455.00;5056263;28;20378;-34
2022/02/13 07:01:04;;;;;;;5.38;3.95;;;;;;;0.34;82.91;101450.34;5056590;28;20032;-34
2022/02/13 07:03:29;;;;;;;5.30;3.73;;;;;;;0.34;82.78;101461.00;5056157;28;20487;-34
2022/02/13 07:05:54;;;;;;;8.20;4.20;;;;;;;0.34;82.46;101445.03;5056503;28;20021;-34
2022/02/13 07:08:20;;;;;;;6.93;3.90;;;;;;;0.38;81.99;101449.06;5055112;28;20091;-34
2022/02/13 07:10:45;;;;;;;7.30;4.73;;;;;;;0.41;82.53;101448.78;5055912;28;20029;-34
2022/02/13 07:13:10;;;;;;;5.17;4.00;;;;;;;0.22;81.83;101402.69;5056105;28;20071;-34
2022/02/13 07:15:37;;;;;;;5.53;4.00;;;;;;;0.50;81.82;101442.56;5056112;28;20025;-34
2022/02/13 07:18:03;;;;;;;5.45;3.72;;;;;;;0.52;82.25;101440.56;5055937;28;20103;-34
2022/02/13 07:20:28;;;;;;;5.65;3.65;;;;;;;0.55;81.89;101442.13;5056347;28;20533;-34
2022/02/13 07:22:53;;;;;;;7.30;3.80;;;;;;;0.60;81.40;101451.31;5056098;28;20025;-34
2022/02/13 07:25:19;;;;;;;5.57;3.80;;;;;;;0.62;81.70;101438.69;5055796;28;20025;-34
2022/02/13 07:27:44;;;;;;;7.67;4.50;;;;;;;0.60;81.65;101429.19;5055558;28;20063;-34
2022/02/13 07:30:13;;;;;;;5.53;4.00;;;;;;;0.68;81.00;101435.44;5055847;28;20021;-34
2022/02/13 07:32:43;;;;;;;5.38;3.92;;;;;;;0.72;81.35;101431.44;5055374;28;20478;-34
2022/02/13 07:35:08;;;;;;;5.88;4.15;;;;;;;0.80;81.49;101441.34;5055534;28;20040;-34
2022/02/13 07:37:34;;;;;;;8.10;3.90;;;;;;;0.89;81.57;101442.25;5055439;28;20021;-35
2022/02/13 07:40:00;;;;;;;5.47;3.92;;;;;;;0.94;81.57;101434.66;5055979;28;20032;-34
2022/02/13 07:42:25;;;;;;;6.90;4.17;;;;;;;0.99;80.59;101443.00;5055371;28;20036;-35
2022/02/13 07:44:51;;;;;;;5.20;3.60;;;;;;;0.95;81.11;101429.16;5055572;28;20033;-35
2022/02/13 07:47:16;;;;;;;6.57;3.73;;;;;;;1.07;80.66;101437.72;5055689;28;20025;-35
2022/02/13 07:49:42;;;;;;;6.45;4.18;;;;;;;1.13;80.94;101441.63;5056174;28;20079;-35
2022/02/13 07:52:08;;;;;;;5.07;3.80;;;;;;;1.12;80.96;101419.47;5055747;28;20457;-35
2022/02/13 07:54:33;;;;;;;7.00;4.20;;;;;;;1.19;80.25;101441.84;5055304;28;20041;-35
2022/02/13 07:56:59;;;;;;;7.23;4.43;;;;;;;1.26;80.36;101442.88;5055357;28;20381;-34
2022/02/13 07:59:24;;;;;;;6.80;4.23;;;;;;;1.29;80.37;101439.09;5055951;28;20103;-36
2022/02/13 08:01:50;;;;;;;5.32;3.92;;;;;;;1.33;80.50;101439.63;5055103;28;20455;-35
2022/02/13 08:04:15;;;;;;;5.43;3.87;;;;;;;1.39;80.41;101446.97;5055318;28;20021;-35
2022/02/13 08:06:40;;;;;;;5.90;3.90;;;;;;;1.40;79.42;101432.66;5055358;28;20032;-36
2022/02/13 08:09:06;;;;;;;8.27;4.17;;;;;;;1.36;79.74;101425.97;5055492;28;20021;-35
2022/02/13 08:11:31;;;;;;;9.60;4.37;;;;;;;1.46;79.42;101435.50;5055988;28;20338;-35
2022/02/13 08:13:58;;;;;;;5.07;3.60;;;;;;;1.50;80.43;101447.53;5055345;28;20029;-35
2022/02/13 08:16:23;;;;;;;7.97;4.15;;;;;;;1.54;80.09;101437.41;5055522;28;20024;-35
2022/02/13 08:18:49;;;;;;;8.02;4.25;;;;;;;1.49;79.90;101421.88;5054540;28;20035;-35
2022/02/13 08:21:14;;;;;;;8.03;4.17;;;;;;;1.59;79.12;101429.78;5055175;28;20025;-35
2022/02/13 08:23:40;;;;;;;6.00;3.73;;;;;;;1.64;79.61;101423.97;5054920;28;20294;-34
2022/02/13 08:26:06;;;;;;;6.80;4.22;;;;;;;1.62;78.85;101402.81;5055562;28;20052;-34
2022/02/13 08:28:34;;;;;;;5.35;3.80;;;;;;;1.75;79.08;101429.84;5055090;28;20057;-35
2022/02/13 08:31:01;;;;;;;6.80;3.92;;;;;;;1.80;79.14;101418.72;5054808;28;20040;-35
2022/02/13 08:33:26;;;;;;;7.75;4.05;;;;;;;1.87;79.49;101414.41;5054699;28;20430;-36
2022/02/13 08:35:52;;;;;;;5.45;3.88;;;;;;;1.96;78.58;101423.31;5054939;28;20113;-35
2022/02/13 08:38:18;;;;;;;5.75;3.83;;;;;;;1.96;79.11;101404.63;5054593;28;20417;-35
2022/02/13 08:40:43;;;;;;;11.20;4.57;;;;;;;2.21;78.03;101413.53;5054144;28;20362;-35
2022/02/13 08:43:09;;;;;;;5.37;3.90;;;;;;;2.31;78.56;101407.06;5054803;28;20025;-35
2022/02/13 08:45:36;;;;;;;4.18;3.33;;;;;;;2.43;77.42;101396.91;5052902;28;20029;-35
2022/02/13 08:48:02;;;;;;;6.07;4.03;;;;;;;2.52;77.58;101398.59;5054208;28;20029;-35
2022/02/13 08:50:27;;;;;;;6.55;4.03;;;;;;;2.63;77.27;101396.59;5054306;28;20029;-33
2022/02/13 08:52:53;;;;;;;7.47;4.00;;;;;;;2.70;76.73;101387.78;5054519;28;20060;-35
2022/02/13 08:55:19;;;;;;;8.33;4.13;;;;;;;2.72;76.81;101383.09;5054526;28;20103;-34
2022/02/13 08:57:45;;;;;;;;;;;;;;;2.84;76.75;101403.13;5054502;28;20743;-35
2022/02/13 09:00:12;;;;;;;5.50;4.00;;;;;;;2.91;76.11;101389.09;5053828;28;19932;-35
2022/02/13 09:02:39;;;;;;;5.22;3.90;;;;;;;2.87;76.15;101371.72;5053933;28;20037;-35
2022/02/13 09:05:06;;;;;;;;;;;;;;;3.03;76.34;101379.75;5052875;28;20025;-35
2022/02/13 09:07:35;;;;;;;9.27;4.20;;;;;;;3.06;75.58;101377.56;5052657;28;19913;-35
2022/02/13 09:10:02;;;;;;;4.90;3.63;;;;;;;3.09;75.85;101368.38;5053910;28;20036;-35
2022/02/13 09:12:29;;;;;;;8.10;4.70;;;;;;;3.17;75.25;101371.03;5053687;28;20036;-35
2022/02/13 09:14:55;;;;;;;6.45;4.15;;;;;;;3.20;75.14;101357.34;5053763;28;20060;-35
2022/02/13 09:17:20;;;;;;;6.20;4.13;;;;;;;3.23;75.05;101349.00;5053826;28;20060;-35
2022/02/13 09:19:45;;;;;;;4.83;3.80;;;;;;;3.29;74.91;101348.28;5053913;28;20107;-35
2022/02/13 09:22:11;;;;;;;7.57;4.00;;;;;;;3.37;75.17;101339.44;5054019;28;20037;-35
2022/02/13 09:24:36;;;;;;;5.70;4.17;;;;;;;3.43;74.99;101333.38;5053460;28;20139;-35
2022/02/13 09:27:01;;;;;;;4.87;3.57;;;;;;;3.47;74.08;101320.53;5053515;28;20449;-35
2022/02/13 09:29:27;;;;;;;7.23;4.10;;;;;;;3.52;74.50;101313.63;5053561;28;20029;-35
2022/02/13 09:31:52;;;;;;;7.13;4.40;;;;;;;3.65;74.74;101310.41;5053673;28;20295;-35
2022/02/13 09:34:23;;;;;;;5.47;3.90;;;;;;;3.73;73.66;101321.06;5053453;28;20044;-35
2022/02/13 09:36:49;;;;;;;6.18;4.07;;;;;;;3.83;73.20;101320.84;5053324;28;20278;-35
2022/02/13 09:39:14;;;;;;;5.38;3.75;;;;;;;3.92;73.29;101317.13;5053579;28;20033;-35
2022/02/13 09:41:40;;;;;;;4.90;3.37;;;;;;;4.01;73.09;101313.41;5053620;28;20070;-35
2022/02/13 09:44:07;;;;;;;5.60;3.70;;;;;;;4.06;73.27;101310.19;5053731;28;20718;-35
2022/02/13 09:46:33;;;;;;;5.68;3.88;;;;;;;4.18;73.35;101311.44;5053478;28;20032;-35
2022/02/13 09:48:59;;;;;;;4.30;3.63;;;;;;;4.23;73.24;101302.88;5053463;28;20374;-35
2022/02/13 09:51:24;;;;;;;4.50;3.25;;;;;;;4.21;73.61;101280.81;5053774;28;20045;-34
2022/02/13 09:53:50;;;;;;;5.68;3.75;;;;;;;4.36;73.25;101293.25;5053328;28;20072;-35
2022/02/13 09:56:15;;;;;;;5.20;3.60;;;;;;;4.42;73.03;101297.03;5053184;28;20052;-34
2022/02/13 09:58:40;;;;;;;4.20;3.57;;;;;;;4.43;73.19;101277.28;5053039;28;20362;-34
2022/02/13 10:01:08;;;;;;;7.10;4.07;;;;;;;4.51;73.16;101279.91;5053054;28;20025;-35
2022/02/13 10:03:39;;;;;;;6.80;3.78;;;;;;;4.56;72.87;101272.16;5052949;28;20025;-34
2022/02/13 10:06:13;;;;;;;4.63;3.58;;;;;;;4.63;72.86;101269.56;5054044;28;20033;-35
2022/02/13 10:08:48;;;;;;;5.97;4.00;;;;;;;4.65;72.41;101270.25;5053209;28;20036;-34
2022/02/13 10:11:30;;;;;;;5.93;3.83;;;;;;;4.72;72.64;101267.66;5053223;28;20067;-34
2022/02/13 10:13:58;;;;;;;7.28;4.38;;;;;;;4.77;71.47;101263.41;5053534;28;20029;-34
2022/02/13 10:16:31;;;;;;;5.85;3.92;;;;;;;4.80;71.54;101263.06;5053020;28;20083;-35
2022/02/13 10:18:58;;;;;;;5.20;3.65;;;;;;;4.87;71.34;101255.09;5056363;28;20021;-35
2022/02/13 10:21:40;;;;;;;6.20;4.22;;;;;;;4.86;71.79;101238.19;5057534;28;20027;-35
2022/02/13 10:24:17;;;;;;;5.63;3.30;;;;;;;4.87;71.98;101218.41;5057344;28;20033;-34
2022/02/13 10:26:45;;;;;;;4.65;3.30;;;;;;;5.06;71.64;101238.47;5057388;28;20035;-35
2022/02/13 10:29:11;;;;;;;5.45;3.45;;;;;;;5.14;71.35;101243.75;5056994;28;20505;-35
2022/02/13 10:31:41;;;;;;;4.93;3.45;;;;;;;5.26;71.05;101252.16;5057086;28;20102;-34
2022/02/13 10:34:06;;;;;;;5.03;3.47;;;;;;;5.29;70.26;101229.50;5056751;28;20096;-35
2022/02/13 10:36:42;;;;;;;5.23;3.73;;;;;;;5.36;71.22;101225.88;5057594;28;20035;-35
2022/02/13 10:39:27;;;;;;;4.97;3.25;;;;;;;5.49;71.16;101245.84;5057254;28;20126;-34
2022/02/13 10:41:53;;;;;;;5.95;3.63;;;;;;;5.45;70.75;101248.06;5057346;28;20032;-34
2022/02/13 10:44:29;;;;;;;5.65;4.03;;;;;;;5.49;71.84;101245.84;5056828;28;20028;-34
2022/02/13 10:46:55;;;;;;;4.32;3.50;;;;;;;5.47;70.84;101242.53;5056567;28;20028;-34
2022/02/13 10:49:22;;;;;;;4.68;3.65;;;;;;;5.50;71.46;101231.41;5056938;28;20469;-34
2022/02/13 10:51:48;;;;;;;4.47;3.58;;;;;;;5.59;71.27;101231.09;5056402;28;20428;-35
2022/02/13 10:54:14;;;;;;;;;;;;;;;5.73;71.28;101242.00;5057370;28;20094;-34
2022/02/13 10:56:39;;;;;;;5.70;3.80;;;;;;;5.75;70.10;101235.41;5056867;28;19913;-35
2022/02/13 10:59:09;;;;;;;5.97;3.88;;;;;;;5.84;71.38;101230.75;5056868;28;20369;-35
2022/02/13 11:01:35;;;;;;;5.47;3.80;;;;;;;5.93;70.28;101227.78;5056672;28;20032;-35
2022/02/13 11:04:03;;;;;;;5.35;3.83;;;;;;;6.04;70.53;101218.41;5056975;28;20161;-35
2022/02/13 11:06:31;;;;;;;6.38;3.97;;;;;;;6.12;71.22;101214.75;5056151;28;20039;-35
2022/02/13 11:09:10;;;;;;;8.38;3.67;;;;;;;6.16;71.04;101205.31;5056315;28;20472;-35
2022/02/13 11:11:38;;;;;;;5.50;4.32;;;;;;;6.17;70.18;101198.91;5055869;28;20424;-35
2022/02/13 11:14:04;;;;;;;6.22;4.57;;;;;;;6.29;69.92;101200.03;5056008;28;20377;-35
2022/02/13 11:16:38;;;;;;;6.63;4.10;;;;;;;6.33;70.18;101190.56;5056824;28;20036;-35
2022/02/13 11:19:12;;;;;;;6.72;5.00;;;;;;;6.31;69.91;101173.81;5055957;28;20021;-34
2022/02/13 11:21:39;;;;;;;6.22;4.07;;;;;;;6.47;69.57;101179.91;5056578;28;20029;-35
2022/02/13 11:24:06;;;;;;;5.45;3.75;;;;;;;6.56;69.74;101176.88;5055848;28;20036;-35
2022/02/13 11:26:43;;;;;;;5.18;4.07;;;;;;;6.69;69.66;101158.16;5056167;28;20107;-35
2022/02/13 11:29:09;;;;;;;;;;;;;;;6.78;70.80;101158.81;5055875;28;20547;-36